sensor_id;sensor_type;location;lat;lon;timestamp;P1;durP1;ratioP1;P2;durP2;ratioP2
13461;SDS011;6803;45.264;5.468;2023-02-28T00:00:42;11.77;;;6.40;;
13461;SDS011;6803;45.264;5.468;2023-02-28T00:03:13;7.63;;;6.40;;
13461;SDS011;6803;45.264;5.468;2023-02-28T00:05:44;8.40;;;6.60;;
13461;SDS011;6803;45.264;5.468;2023-02-28T00:08:15;7.40;;;6.10;;
13461;SDS011;6803;45.264;5.468;2023-02-28T00:10:47;7.50;;;5.60;;
13461;SDS011;6803;45.264;5.468;2023-02-28T00:13:18;9.37;;;6.30;;
13461;SDS011;6803;45.264;5.468;2023-02-28T00:15:58;10.67;;;7.10;;
13461;SDS011;6803;45.264;5.468;2023-02-28T00:18:31;10.07;;;7.53;;
13461;SDS011;6803;45.264;5.468;2023-02-28T00:21:02;8.37;;;6.50;;
13461;SDS011;6803;45.264;5.468;2023-02-28T00:23:34;11.50;;;6.90;;
13461;SDS011;6803;45.264;5.468;2023-02-28T00:26:06;8.93;;;7.40;;
13461;SDS011;6803;45.264;5.468;2023-02-28T00:28:37;8.53;;;6.83;;
13461;SDS011;6803;45.264;5.468;2023-02-28T00:31:08;11.43;;;7.03;;
13461;SDS011;6803;45.264;5.468;2023-02-28T00:33:39;11.53;;;7.93;;
13461;SDS011;6803;45.264;5.468;2023-02-28T00:36:11;9.93;;;7.27;;
13461;SDS011;6803;45.264;5.468;2023-02-28T00:38:42;11.47;;;8.00;;
13461;SDS011;6803;45.264;5.468;2023-02-28T00:41:13;8.57;;;7.27;;
13461;SDS011;6803;45.264;5.468;2023-02-28T00:43:44;9.87;;;7.77;;
13461;SDS011;6803;45.264;5.468;2023-02-28T00:46:15;10.48;;;8.48;;
13461;SDS011;6803;45.264;5.468;2023-02-28T00:48:46;9.23;;;7.07;;
13461;SDS011;6803;45.264;5.468;2023-02-28T00:51:17;10.97;;;7.90;;
13461;SDS011;6803;45.264;5.468;2023-02-28T00:53:48;9.30;;;7.50;;
13461;SDS011;6803;45.264;5.468;2023-02-28T00:56:20;10.27;;;8.03;;
13461;SDS011;6803;45.264;5.468;2023-02-28T00:58:51;10.30;;;7.43;;
13461;SDS011;6803;45.264;5.468;2023-02-28T01:01:22;10.20;;;7.63;;
13461;SDS011;6803;45.264;5.468;2023-02-28T01:03:54;11.10;;;7.70;;
13461;SDS011;6803;45.264;5.468;2023-02-28T01:06:25;10.53;;;7.50;;
13461;SDS011;6803;45.264;5.468;2023-02-28T01:08:56;9.53;;;7.33;;
13461;SDS011;6803;45.264;5.468;2023-02-28T01:11:27;9.33;;;7.70;;
13461;SDS011;6803;45.264;5.468;2023-02-28T01:13:59;12.03;;;8.67;;
13461;SDS011;6803;45.264;5.468;2023-02-28T01:16:31;13.73;;;7.70;;
13461;SDS011;6803;45.264;5.468;2023-02-28T01:19:02;9.37;;;7.40;;
13461;SDS011;6803;45.264;5.468;2023-02-28T01:21:33;9.17;;;7.83;;
13461;SDS011;6803;45.264;5.468;2023-02-28T01:24:05;10.03;;;8.10;;
13461;SDS011;6803;45.264;5.468;2023-02-28T01:26:37;10.43;;;7.73;;
13461;SDS011;6803;45.264;5.468;2023-02-28T01:29:07;9.77;;;7.60;;
13461;SDS011;6803;45.264;5.468;2023-02-28T01:31:38;10.90;;;7.17;;
13461;SDS011;6803;45.264;5.468;2023-02-28T01:34:10;10.47;;;7.70;;
13461;SDS011;6803;45.264;5.468;2023-02-28T01:36:41;9.90;;;8.20;;
13461;SDS011;6803;45.264;5.468;2023-02-28T01:39:12;9.37;;;8.00;;
13461;SDS011;6803;45.264;5.468;2023-02-28T01:41:43;9.93;;;7.63;;
13461;SDS011;6803;45.264;5.468;2023-02-28T01:50:19;11.27;;;8.13;;
13461;SDS011;6803;45.264;5.468;2023-02-28T01:52:51;12.20;;;8.83;;
13461;SDS011;6803;45.264;5.468;2023-02-28T01:55:25;10.83;;;8.17;;
13461;SDS011;6803;45.264;5.468;2023-02-28T01:57:57;14.27;;;8.70;;
13461;SDS011;6803;45.264;5.468;2023-02-28T02:00:30;11.87;;;8.87;;
13461;SDS011;6803;45.264;5.468;2023-02-28T02:03:05;11.60;;;8.33;;
13461;SDS011;6803;45.264;5.468;2023-02-28T02:05:37;9.73;;;8.13;;
13461;SDS011;6803;45.264;5.468;2023-02-28T02:08:09;11.90;;;8.30;;
13461;SDS011;6803;45.264;5.468;2023-02-28T02:10:42;10.07;;;7.97;;
13461;SDS011;6803;45.264;5.468;2023-02-28T02:13:25;12.00;;;9.00;;
13461;SDS011;6803;45.264;5.468;2023-02-28T02:16:07;9.83;;;8.40;;
13461;SDS011;6803;45.264;5.468;2023-02-28T02:18:42;12.57;;;8.17;;
13461;SDS011;6803;45.264;5.468;2023-02-28T02:27:35;12.23;;;8.70;;
13461;SDS011;6803;45.264;5.468;2023-02-28T02:30:19;12.83;;;8.93;;
13461;SDS011;6803;45.264;5.468;2023-02-28T02:33:07;15.30;;;9.30;;
13461;SDS011;6803;45.264;5.468;2023-02-28T02:35:58;10.40;;;8.33;;
13461;SDS011;6803;45.264;5.468;2023-02-28T02:38:32;11.07;;;8.60;;
13461;SDS011;6803;45.264;5.468;2023-02-28T02:41:08;12.33;;;8.40;;
13461;SDS011;6803;45.264;5.468;2023-02-28T02:43:42;11.10;;;8.43;;
13461;SDS011;6803;45.264;5.468;2023-02-28T02:46:18;9.57;;;8.10;;
13461;SDS011;6803;45.264;5.468;2023-02-28T02:48:50;10.33;;;7.93;;
13461;SDS011;6803;45.264;5.468;2023-02-28T02:51:24;12.63;;;8.83;;
13461;SDS011;6803;45.264;5.468;2023-02-28T02:59:40;10.33;;;8.07;;
13461;SDS011;6803;45.264;5.468;2023-02-28T03:02:13;9.27;;;7.87;;
13461;SDS011;6803;45.264;5.468;2023-02-28T03:04:48;12.97;;;8.73;;
13461;SDS011;6803;45.264;5.468;2023-02-28T03:07:21;10.70;;;8.40;;
13461;SDS011;6803;45.264;5.468;2023-02-28T03:09:52;10.63;;;8.50;;
13461;SDS011;6803;45.264;5.468;2023-02-28T03:12:26;11.43;;;7.97;;
13461;SDS011;6803;45.264;5.468;2023-02-28T03:15:01;11.43;;;9.27;;
13461;SDS011;6803;45.264;5.468;2023-02-28T03:17:41;12.03;;;8.50;;
13461;SDS011;6803;45.264;5.468;2023-02-28T03:20:26;10.53;;;8.50;;
13461;SDS011;6803;45.264;5.468;2023-02-28T03:23:01;11.87;;;8.47;;
13461;SDS011;6803;45.264;5.468;2023-02-28T03:25:39;12.87;;;8.87;;
13461;SDS011;6803;45.264;5.468;2023-02-28T03:28:14;12.67;;;9.00;;
13461;SDS011;6803;45.264;5.468;2023-02-28T03:30:49;13.37;;;8.70;;
13461;SDS011;6803;45.264;5.468;2023-02-28T03:33:23;11.63;;;8.60;;
13461;SDS011;6803;45.264;5.468;2023-02-28T03:35:57;9.77;;;7.67;;
13461;SDS011;6803;45.264;5.468;2023-02-28T03:38:31;10.60;;;8.40;;
13461;SDS011;6803;45.264;5.468;2023-02-28T03:41:05;10.30;;;8.13;;
13461;SDS011;6803;45.264;5.468;2023-02-28T03:43:40;13.33;;;9.63;;
13461;SDS011;6803;45.264;5.468;2023-02-28T03:46:13;11.57;;;9.07;;
13461;SDS011;6803;45.264;5.468;2023-02-28T03:48:49;11.93;;;8.87;;
13461;SDS011;6803;45.264;5.468;2023-02-28T03:51:23;10.87;;;8.17;;
13461;SDS011;6803;45.264;5.468;2023-02-28T03:53:57;12.10;;;9.00;;
13461;SDS011;6803;45.264;5.468;2023-02-28T03:56:48;14.07;;;9.73;;
13461;SDS011;6803;45.264;5.468;2023-02-28T03:59:24;12.70;;;9.27;;
13461;SDS011;6803;45.264;5.468;2023-02-28T04:01:56;12.43;;;9.60;;
13461;SDS011;6803;45.264;5.468;2023-02-28T04:04:28;11.00;;;8.40;;
13461;SDS011;6803;45.264;5.468;2023-02-28T04:07:03;12.83;;;8.87;;
13461;SDS011;6803;45.264;5.468;2023-02-28T04:09:36;13.17;;;10.10;;
13461;SDS011;6803;45.264;5.468;2023-02-28T04:12:08;11.63;;;8.50;;
13461;SDS011;6803;45.264;5.468;2023-02-28T04:14:39;11.33;;;8.77;;
13461;SDS011;6803;45.264;5.468;2023-02-28T04:17:10;14.43;;;9.57;;
13461;SDS011;6803;45.264;5.468;2023-02-28T04:19:41;13.07;;;9.30;;
13461;SDS011;6803;45.264;5.468;2023-02-28T04:22:13;12.37;;;9.17;;
13461;SDS011;6803;45.264;5.468;2023-02-28T04:24:45;13.77;;;9.60;;
13461;SDS011;6803;45.264;5.468;2023-02-28T04:27:16;12.90;;;9.23;;
13461;SDS011;6803;45.264;5.468;2023-02-28T04:29:47;13.97;;;8.97;;
13461;SDS011;6803;45.264;5.468;2023-02-28T04:32:19;12.27;;;9.47;;
13461;SDS011;6803;45.264;5.468;2023-02-28T04:34:50;13.63;;;9.07;;
13461;SDS011;6803;45.264;5.468;2023-02-28T04:37:21;12.43;;;8.03;;
13461;SDS011;6803;45.264;5.468;2023-02-28T04:39:54;12.87;;;8.83;;
13461;SDS011;6803;45.264;5.468;2023-02-28T04:42:25;28.17;;;14.30;;
13461;SDS011;6803;45.264;5.468;2023-02-28T04:44:57;20.40;;;12.90;;
13461;SDS011;6803;45.264;5.468;2023-02-28T04:47:29;31.83;;;15.93;;
13461;SDS011;6803;45.264;5.468;2023-02-28T04:50:01;16.87;;;10.53;;
13461;SDS011;6803;45.264;5.468;2023-02-28T04:52:32;15.03;;;10.33;;
13461;SDS011;6803;45.264;5.468;2023-02-28T04:55:04;12.67;;;9.00;;
13461;SDS011;6803;45.264;5.468;2023-02-28T04:57:36;16.67;;;8.83;;
13461;SDS011;6803;45.264;5.468;2023-02-28T05:00:10;12.47;;;9.63;;
13461;SDS011;6803;45.264;5.468;2023-02-28T05:02:44;13.20;;;9.47;;
13461;SDS011;6803;45.264;5.468;2023-02-28T05:05:15;10.47;;;8.60;;
13461;SDS011;6803;45.264;5.468;2023-02-28T05:07:47;12.87;;;9.87;;
13461;SDS011;6803;45.264;5.468;2023-02-28T05:10:18;13.63;;;10.07;;
13461;SDS011;6803;45.264;5.468;2023-02-28T05:12:49;15.23;;;9.93;;
13461;SDS011;6803;45.264;5.468;2023-02-28T05:15:20;13.40;;;9.50;;
13461;SDS011;6803;45.264;5.468;2023-02-28T05:17:52;12.53;;;9.23;;
13461;SDS011;6803;45.264;5.468;2023-02-28T05:20:23;13.17;;;9.80;;
13461;SDS011;6803;45.264;5.468;2023-02-28T05:22:53;13.63;;;9.33;;
13461;SDS011;6803;45.264;5.468;2023-02-28T05:25:27;12.50;;;9.37;;
13461;SDS011;6803;45.264;5.468;2023-02-28T05:27:58;10.37;;;8.43;;
13461;SDS011;6803;45.264;5.468;2023-02-28T05:30:29;11.07;;;8.73;;
13461;SDS011;6803;45.264;5.468;2023-02-28T05:33:00;11.20;;;8.17;;
13461;SDS011;6803;45.264;5.468;2023-02-28T05:35:31;13.43;;;9.30;;
13461;SDS011;6803;45.264;5.468;2023-02-28T05:38:03;13.53;;;10.23;;
13461;SDS011;6803;45.264;5.468;2023-02-28T05:40:34;14.47;;;10.60;;
13461;SDS011;6803;45.264;5.468;2023-02-28T05:43:08;12.47;;;9.70;;
13461;SDS011;6803;45.264;5.468;2023-02-28T05:45:40;13.73;;;9.50;;
13461;SDS011;6803;45.264;5.468;2023-02-28T05:48:11;14.53;;;9.70;;
13461;SDS011;6803;45.264;5.468;2023-02-28T05:50:42;18.83;;;12.80;;
13461;SDS011;6803;45.264;5.468;2023-02-28T05:53:20;16.90;;;10.93;;
13461;SDS011;6803;45.264;5.468;2023-02-28T05:55:58;14.63;;;10.67;;
13461;SDS011;6803;45.264;5.468;2023-02-28T05:58:31;16.93;;;11.23;;
13461;SDS011;6803;45.264;5.468;2023-02-28T06:01:20;16.80;;;11.10;;
13461;SDS011;6803;45.264;5.468;2023-02-28T06:03:56;13.20;;;10.20;;
13461;SDS011;6803;45.264;5.468;2023-02-28T06:06:29;14.57;;;9.40;;
13461;SDS011;6803;45.264;5.468;2023-02-28T06:09:03;17.77;;;10.83;;
13461;SDS011;6803;45.264;5.468;2023-02-28T06:11:34;18.47;;;12.23;;
13461;SDS011;6803;45.264;5.468;2023-02-28T06:14:07;17.00;;;10.83;;
13461;SDS011;6803;45.264;5.468;2023-02-28T06:16:40;16.07;;;10.97;;
13461;SDS011;6803;45.264;5.468;2023-02-28T06:19:11;14.00;;;9.50;;
13461;SDS011;6803;45.264;5.468;2023-02-28T06:21:43;12.07;;;9.17;;
13461;SDS011;6803;45.264;5.468;2023-02-28T06:24:16;14.37;;;9.57;;
13461;SDS011;6803;45.264;5.468;2023-02-28T06:26:47;12.97;;;8.93;;
13461;SDS011;6803;45.264;5.468;2023-02-28T06:29:18;13.00;;;9.47;;
13461;SDS011;6803;45.264;5.468;2023-02-28T06:31:49;11.50;;;9.17;;
13461;SDS011;6803;45.264;5.468;2023-02-28T06:34:20;11.80;;;9.27;;
13461;SDS011;6803;45.264;5.468;2023-02-28T06:36:51;11.47;;;9.33;;
13461;SDS011;6803;45.264;5.468;2023-02-28T06:39:22;11.60;;;8.23;;
13461;SDS011;6803;45.264;5.468;2023-02-28T06:41:53;11.23;;;8.80;;
13461;SDS011;6803;45.264;5.468;2023-02-28T06:44:24;11.90;;;8.10;;
13461;SDS011;6803;45.264;5.468;2023-02-28T06:46:57;13.73;;;8.87;;
13461;SDS011;6803;45.264;5.468;2023-02-28T06:49:28;11.60;;;7.83;;
13461;SDS011;6803;45.264;5.468;2023-02-28T06:51:59;12.17;;;8.57;;
13461;SDS011;6803;45.264;5.468;2023-02-28T06:54:30;12.73;;;8.43;;
13461;SDS011;6803;45.264;5.468;2023-02-28T06:57:01;10.40;;;8.17;;
13461;SDS011;6803;45.264;5.468;2023-02-28T06:59:32;13.37;;;8.77;;
13461;SDS011;6803;45.264;5.468;2023-02-28T07:02:04;12.23;;;8.13;;
13461;SDS011;6803;45.264;5.468;2023-02-28T07:04:35;16.67;;;9.43;;
13461;SDS011;6803;45.264;5.468;2023-02-28T07:07:09;10.97;;;8.30;;
13461;SDS011;6803;45.264;5.468;2023-02-28T07:09:39;13.57;;;8.60;;
13461;SDS011;6803;45.264;5.468;2023-02-28T07:12:10;12.87;;;7.77;;
13461;SDS011;6803;45.264;5.468;2023-02-28T07:14:41;14.07;;;8.23;;
13461;SDS011;6803;45.264;5.468;2023-02-28T07:17:12;12.23;;;8.33;;
13461;SDS011;6803;45.264;5.468;2023-02-28T07:19:43;11.63;;;8.30;;
13461;SDS011;6803;45.264;5.468;2023-02-28T07:22:14;11.47;;;7.87;;
13461;SDS011;6803;45.264;5.468;2023-02-28T07:24:45;13.23;;;9.00;;
13461;SDS011;6803;45.264;5.468;2023-02-28T07:27:17;10.83;;;7.53;;
13461;SDS011;6803;45.264;5.468;2023-02-28T07:29:53;13.63;;;7.47;;
13461;SDS011;6803;45.264;5.468;2023-02-28T07:32:24;13.90;;;8.30;;
13461;SDS011;6803;45.264;5.468;2023-02-28T07:34:56;9.87;;;7.70;;
13461;SDS011;6803;45.264;5.468;2023-02-28T07:37:26;10.37;;;7.60;;
13461;SDS011;6803;45.264;5.468;2023-02-28T07:39:59;10.70;;;7.57;;
13461;SDS011;6803;45.264;5.468;2023-02-28T07:42:32;12.90;;;8.17;;
13461;SDS011;6803;45.264;5.468;2023-02-28T07:45:04;10.77;;;7.77;;
13461;SDS011;6803;45.264;5.468;2023-02-28T07:47:38;11.00;;;7.63;;
13461;SDS011;6803;45.264;5.468;2023-02-28T07:50:11;11.63;;;8.40;;
13461;SDS011;6803;45.264;5.468;2023-02-28T07:52:43;11.33;;;8.07;;
13461;SDS011;6803;45.264;5.468;2023-02-28T07:55:14;10.53;;;7.73;;
13461;SDS011;6803;45.264;5.468;2023-02-28T07:57:46;8.63;;;6.93;;
13461;SDS011;6803;45.264;5.468;2023-02-28T08:00:18;9.87;;;7.80;;
13461;SDS011;6803;45.264;5.468;2023-02-28T08:02:49;13.60;;;7.43;;
13461;SDS011;6803;45.264;5.468;2023-02-28T08:05:21;9.63;;;7.17;;
13461;SDS011;6803;45.264;5.468;2023-02-28T08:07:52;11.37;;;7.23;;
13461;SDS011;6803;45.264;5.468;2023-02-28T08:10:23;10.13;;;7.67;;
13461;SDS011;6803;45.264;5.468;2023-02-28T08:12:53;10.33;;;7.50;;
13461;SDS011;6803;45.264;5.468;2023-02-28T08:15:25;14.67;;;7.47;;
13461;SDS011;6803;45.264;5.468;2023-02-28T08:17:56;12.30;;;6.70;;
13461;SDS011;6803;45.264;5.468;2023-02-28T08:20:27;8.57;;;7.00;;
13461;SDS011;6803;45.264;5.468;2023-02-28T08:22:58;10.17;;;7.50;;
13461;SDS011;6803;45.264;5.468;2023-02-28T08:25:29;10.63;;;7.70;;
13461;SDS011;6803;45.264;5.468;2023-02-28T08:28:00;12.97;;;7.00;;
13461;SDS011;6803;45.264;5.468;2023-02-28T08:30:31;10.50;;;7.33;;
13461;SDS011;6803;45.264;5.468;2023-02-28T08:33:02;10.40;;;7.33;;
13461;SDS011;6803;45.264;5.468;2023-02-28T08:35:35;10.43;;;7.53;;
13461;SDS011;6803;45.264;5.468;2023-02-28T08:38:07;14.90;;;9.17;;
13461;SDS011;6803;45.264;5.468;2023-02-28T08:40:38;11.83;;;8.20;;
13461;SDS011;6803;45.264;5.468;2023-02-28T08:43:09;11.87;;;8.13;;
13461;SDS011;6803;45.264;5.468;2023-02-28T08:45:40;10.93;;;8.10;;
13461;SDS011;6803;45.264;5.468;2023-02-28T08:48:11;12.47;;;8.50;;
13461;SDS011;6803;45.264;5.468;2023-02-28T08:50:44;12.30;;;8.33;;
13461;SDS011;6803;45.264;5.468;2023-02-28T08:53:18;11.27;;;8.07;;
13461;SDS011;6803;45.264;5.468;2023-02-28T08:55:55;11.33;;;8.33;;
13461;SDS011;6803;45.264;5.468;2023-02-28T08:58:27;10.03;;;8.20;;
13461;SDS011;6803;45.264;5.468;2023-02-28T09:00:58;11.80;;;7.90;;
13461;SDS011;6803;45.264;5.468;2023-02-28T09:03:30;10.43;;;7.70;;
13461;SDS011;6803;45.264;5.468;2023-02-28T09:06:01;13.97;;;8.17;;
13461;SDS011;6803;45.264;5.468;2023-02-28T09:08:33;12.43;;;8.33;;
13461;SDS011;6803;45.264;5.468;2023-02-28T09:11:05;13.57;;;8.10;;
13461;SDS011;6803;45.264;5.468;2023-02-28T09:13:36;9.53;;;8.05;;
13461;SDS011;6803;45.264;5.468;2023-02-28T09:16:10;10.10;;;7.63;;
13461;SDS011;6803;45.264;5.468;2023-02-28T09:18:41;11.03;;;8.03;;
13461;SDS011;6803;45.264;5.468;2023-02-28T09:21:13;11.73;;;8.50;;
13461;SDS011;6803;45.264;5.468;2023-02-28T09:23:46;13.43;;;8.13;;
13461;SDS011;6803;45.264;5.468;2023-02-28T09:26:19;14.80;;;7.93;;
13461;SDS011;6803;45.264;5.468;2023-02-28T09:28:52;11.83;;;8.57;;
13461;SDS011;6803;45.264;5.468;2023-02-28T09:31:25;12.17;;;7.70;;
13461;SDS011;6803;45.264;5.468;2023-02-28T09:33:57;10.50;;;7.70;;
13461;SDS011;6803;45.264;5.468;2023-02-28T09:36:29;10.20;;;7.27;;
13461;SDS011;6803;45.264;5.468;2023-02-28T09:39:03;9.20;;;7.17;;
13461;SDS011;6803;45.264;5.468;2023-02-28T09:41:37;14.17;;;7.77;;
13461;SDS011;6803;45.264;5.468;2023-02-28T09:44:17;9.70;;;7.47;;
13461;SDS011;6803;45.264;5.468;2023-02-28T09:46:54;8.40;;;6.63;;
13461;SDS011;6803;45.264;5.468;2023-02-28T09:49:34;10.10;;;8.00;;
13461;SDS011;6803;45.264;5.468;2023-02-28T09:52:05;10.07;;;7.33;;
13461;SDS011;6803;45.264;5.468;2023-02-28T09:54:39;9.73;;;7.77;;
13461;SDS011;6803;45.264;5.468;2023-02-28T09:57:14;9.40;;;7.20;;
13461;SDS011;6803;45.264;5.468;2023-02-28T09:59:51;9.97;;;7.47;;
13461;SDS011;6803;45.264;5.468;2023-02-28T10:05:27;13.40;;;7.77;;
13461;SDS011;6803;45.264;5.468;2023-02-28T10:08:02;9.37;;;7.27;;
13461;SDS011;6803;45.264;5.468;2023-02-28T10:10:39;9.53;;;6.90;;
13461;SDS011;6803;45.264;5.468;2023-02-28T10:13:14;9.63;;;6.87;;
13461;SDS011;6803;45.264;5.468;2023-02-28T10:15:50;10.43;;;7.03;;
13461;SDS011;6803;45.264;5.468;2023-02-28T10:18:24;10.20;;;6.80;;
13461;SDS011;6803;45.264;5.468;2023-02-28T10:20:58;9.57;;;7.03;;
13461;SDS011;6803;45.264;5.468;2023-02-28T10:23:31;9.47;;;6.67;;
13461;SDS011;6803;45.264;5.468;2023-02-28T10:26:08;8.77;;;6.33;;
13461;SDS011;6803;45.264;5.468;2023-02-28T10:28:40;8.70;;;7.07;;
13461;SDS011;6803;45.264;5.468;2023-02-28T10:31:13;7.27;;;6.53;;
13461;SDS011;6803;45.264;5.468;2023-02-28T10:33:46;10.23;;;7.40;;
13461;SDS011;6803;45.264;5.468;2023-02-28T10:36:19;9.67;;;6.33;;
13461;SDS011;6803;45.264;5.468;2023-02-28T10:38:51;8.47;;;6.67;;
13461;SDS011;6803;45.264;5.468;2023-02-28T10:41:29;11.27;;;6.73;;
13461;SDS011;6803;45.264;5.468;2023-02-28T10:44:17;9.40;;;6.60;;
13461;SDS011;6803;45.264;5.468;2023-02-28T10:46:49;9.50;;;6.50;;
13461;SDS011;6803;45.264;5.468;2023-02-28T10:49:22;8.57;;;6.50;;
13461;SDS011;6803;45.264;5.468;2023-02-28T10:51:56;7.27;;;6.17;;
13461;SDS011;6803;45.264;5.468;2023-02-28T10:54:29;8.63;;;5.93;;
13461;SDS011;6803;45.264;5.468;2023-02-28T10:57:07;11.53;;;6.53;;
13461;SDS011;6803;45.264;5.468;2023-02-28T11:02:37;9.60;;;6.60;;
13461;SDS011;6803;45.264;5.468;2023-02-28T11:05:26;7.83;;;6.70;;
13461;SDS011;6803;45.264;5.468;2023-02-28T11:08:02;9.57;;;6.60;;
13461;SDS011;6803;45.264;5.468;2023-02-28T11:10:34;8.67;;;6.37;;
13461;SDS011;6803;45.264;5.468;2023-02-28T11:13:08;9.80;;;6.63;;
13461;SDS011;6803;45.264;5.468;2023-02-28T11:15:40;8.13;;;6.47;;
13461;SDS011;6803;45.264;5.468;2023-02-28T11:18:19;9.83;;;7.40;;
13461;SDS011;6803;45.264;5.468;2023-02-28T11:20:56;10.63;;;7.10;;
13461;SDS011;6803;45.264;5.468;2023-02-28T11:23:35;9.40;;;7.20;;
13461;SDS011;6803;45.264;5.468;2023-02-28T11:26:09;8.10;;;6.57;;
13461;SDS011;6803;45.264;5.468;2023-02-28T11:28:40;9.20;;;7.60;;
13461;SDS011;6803;45.264;5.468;2023-02-28T11:31:18;9.97;;;7.43;;
13461;SDS011;6803;45.264;5.468;2023-02-28T11:33:51;9.43;;;7.80;;
13461;SDS011;6803;45.264;5.468;2023-02-28T11:36:24;11.63;;;8.33;;
13461;SDS011;6803;45.264;5.468;2023-02-28T11:38:58;9.93;;;7.17;;
13461;SDS011;6803;45.264;5.468;2023-02-28T11:41:38;10.10;;;8.07;;
13461;SDS011;6803;45.264;5.468;2023-02-28T11:44:20;9.97;;;8.00;;
13461;SDS011;6803;45.264;5.468;2023-02-28T11:46:56;10.50;;;8.10;;
13461;SDS011;6803;45.264;5.468;2023-02-28T11:49:31;10.67;;;8.17;;
13461;SDS011;6803;45.264;5.468;2023-02-28T11:52:10;10.83;;;8.40;;
13461;SDS011;6803;45.264;5.468;2023-02-28T11:57:59;11.03;;;8.53;;
13461;SDS011;6803;45.264;5.468;2023-02-28T12:00:43;10.20;;;8.47;;
13461;SDS011;6803;45.264;5.468;2023-02-28T12:03:19;12.27;;;9.10;;
13461;SDS011;6803;45.264;5.468;2023-02-28T12:05:56;10.43;;;8.57;;
13461;SDS011;6803;45.264;5.468;2023-02-28T12:08:36;11.20;;;8.13;;
13461;SDS011;6803;45.264;5.468;2023-02-28T12:11:23;10.80;;;8.07;;
13461;SDS011;6803;45.264;5.468;2023-02-28T12:13:59;9.63;;;7.60;;
13461;SDS011;6803;45.264;5.468;2023-02-28T12:16:40;12.20;;;8.47;;
13461;SDS011;6803;45.264;5.468;2023-02-28T12:19:21;10.30;;;7.93;;
13461;SDS011;6803;45.264;5.468;2023-02-28T12:22:02;10.53;;;7.70;;
13461;SDS011;6803;45.264;5.468;2023-02-28T12:24:43;10.00;;;8.10;;
13461;SDS011;6803;45.264;5.468;2023-02-28T12:27:18;12.60;;;9.00;;
13461;SDS011;6803;45.264;5.468;2023-02-28T12:29:54;11.47;;;8.83;;
13461;SDS011;6803;45.264;5.468;2023-02-28T12:32:30;12.40;;;8.87;;
13461;SDS011;6803;45.264;5.468;2023-02-28T12:35:02;12.67;;;9.33;;
13461;SDS011;6803;45.264;5.468;2023-02-28T12:37:37;13.40;;;8.27;;
13461;SDS011;6803;45.264;5.468;2023-02-28T12:40:13;11.70;;;8.10;;
13461;SDS011;6803;45.264;5.468;2023-02-28T12:42:48;10.60;;;7.97;;
13461;SDS011;6803;45.264;5.468;2023-02-28T12:45:31;11.53;;;8.60;;
13461;SDS011;6803;45.264;5.468;2023-02-28T12:48:04;12.27;;;9.30;;
13461;SDS011;6803;45.264;5.468;2023-02-28T12:50:38;11.43;;;8.90;;
13461;SDS011;6803;45.264;5.468;2023-02-28T12:53:11;11.70;;;8.73;;
13461;SDS011;6803;45.264;5.468;2023-02-28T12:55:45;11.77;;;8.63;;
13461;SDS011;6803;45.264;5.468;2023-02-28T12:58:20;11.77;;;9.03;;
13461;SDS011;6803;45.264;5.468;2023-02-28T13:00:58;10.13;;;7.90;;
13461;SDS011;6803;45.264;5.468;2023-02-28T13:03:48;9.90;;;8.10;;
13461;SDS011;6803;45.264;5.468;2023-02-28T13:06:39;11.33;;;8.70;;
13461;SDS011;6803;45.264;5.468;2023-02-28T13:09:15;14.83;;;8.37;;
13461;SDS011;6803;45.264;5.468;2023-02-28T13:11:47;10.00;;;8.13;;
13461;SDS011;6803;45.264;5.468;2023-02-28T13:14:20;11.35;;;8.93;;
13461;SDS011;6803;45.264;5.468;2023-02-28T13:17:00;14.93;;;8.53;;
13461;SDS011;6803;45.264;5.468;2023-02-28T13:19:34;11.17;;;8.43;;
13461;SDS011;6803;45.264;5.468;2023-02-28T13:22:10;9.87;;;7.97;;
13461;SDS011;6803;45.264;5.468;2023-02-28T13:24:50;11.53;;;8.60;;
13461;SDS011;6803;45.264;5.468;2023-02-28T13:27:24;12.53;;;8.53;;
13461;SDS011;6803;45.264;5.468;2023-02-28T13:33:23;11.53;;;8.17;;
13461;SDS011;6803;45.264;5.468;2023-02-28T13:38:58;11.83;;;8.90;;
13461;SDS011;6803;45.264;5.468;2023-02-28T13:41:42;11.33;;;8.80;;
13461;SDS011;6803;45.264;5.468;2023-02-28T13:50:08;10.23;;;8.60;;
13461;SDS011;6803;45.264;5.468;2023-02-28T13:56:19;11.67;;;8.60;;
13461;SDS011;6803;45.264;5.468;2023-02-28T13:58:57;12.00;;;8.43;;
13461;SDS011;6803;45.264;5.468;2023-02-28T14:01:36;10.10;;;8.40;;
13461;SDS011;6803;45.264;5.468;2023-02-28T14:04:21;10.23;;;7.90;;
13461;SDS011;6803;45.264;5.468;2023-02-28T14:07:16;10.10;;;8.45;;
13461;SDS011;6803;45.264;5.468;2023-02-28T14:10:00;11.73;;;7.87;;
13461;SDS011;6803;45.264;5.468;2023-02-28T14:18:27;9.67;;;7.57;;
13461;SDS011;6803;45.264;5.468;2023-02-28T14:21:14;11.90;;;8.13;;
13461;SDS011;6803;45.264;5.468;2023-02-28T14:24:01;13.10;;;7.93;;
13461;SDS011;6803;45.264;5.468;2023-02-28T14:27:00;10.80;;;8.33;;
13461;SDS011;6803;45.264;5.468;2023-02-28T14:33:10;9.37;;;7.97;;
13461;SDS011;6803;45.264;5.468;2023-02-28T14:36:07;10.27;;;8.03;;
13461;SDS011;6803;45.264;5.468;2023-02-28T14:38:45;11.07;;;7.73;;
13461;SDS011;6803;45.264;5.468;2023-02-28T14:41:20;9.87;;;8.30;;
13461;SDS011;6803;45.264;5.468;2023-02-28T14:43:54;10.27;;;8.10;;
13461;SDS011;6803;45.264;5.468;2023-02-28T14:46:28;9.27;;;8.20;;
13461;SDS011;6803;45.264;5.468;2023-02-28T14:49:01;11.28;;;9.35;;
13461;SDS011;6803;45.264;5.468;2023-02-28T14:51:34;14.23;;;9.00;;
13461;SDS011;6803;45.264;5.468;2023-02-28T14:54:05;13.13;;;8.87;;
13461;SDS011;6803;45.264;5.468;2023-02-28T14:56:37;10.53;;;8.70;;
13461;SDS011;6803;45.264;5.468;2023-02-28T14:59:22;14.07;;;8.17;;
13461;SDS011;6803;45.264;5.468;2023-02-28T15:02:15;10.57;;;8.70;;
13461;SDS011;6803;45.264;5.468;2023-02-28T15:04:53;12.20;;;8.63;;
13461;SDS011;6803;45.264;5.468;2023-02-28T15:07:26;12.97;;;9.60;;
13461;SDS011;6803;45.264;5.468;2023-02-28T15:10:07;12.13;;;8.70;;
13461;SDS011;6803;45.264;5.468;2023-02-28T15:12:39;11.17;;;8.47;;
13461;SDS011;6803;45.264;5.468;2023-02-28T15:15:16;9.83;;;8.20;;
13461;SDS011;6803;45.264;5.468;2023-02-28T15:17:51;13.83;;;9.10;;
13461;SDS011;6803;45.264;5.468;2023-02-28T15:20:25;10.87;;;8.07;;
13461;SDS011;6803;45.264;5.468;2023-02-28T15:25:47;13.03;;;8.13;;
13461;SDS011;6803;45.264;5.468;2023-02-28T15:28:20;12.33;;;8.90;;
13461;SDS011;6803;45.264;5.468;2023-02-28T15:30:54;10.63;;;8.60;;
13461;SDS011;6803;45.264;5.468;2023-02-28T15:33:28;11.00;;;8.37;;
13461;SDS011;6803;45.264;5.468;2023-02-28T15:36:05;12.73;;;8.50;;
13461;SDS011;6803;45.264;5.468;2023-02-28T15:38:41;10.97;;;8.03;;
13461;SDS011;6803;45.264;5.468;2023-02-28T15:41:22;12.30;;;8.73;;
13461;SDS011;6803;45.264;5.468;2023-02-28T15:47:03;12.97;;;8.90;;
13461;SDS011;6803;45.264;5.468;2023-02-28T15:49:39;10.77;;;8.97;;
13461;SDS011;6803;45.264;5.468;2023-02-28T15:52:13;11.00;;;8.60;;
13461;SDS011;6803;45.264;5.468;2023-02-28T15:54:46;10.40;;;8.97;;
13461;SDS011;6803;45.264;5.468;2023-02-28T15:57:18;13.43;;;8.70;;
13461;SDS011;6803;45.264;5.468;2023-02-28T15:59:54;10.30;;;8.57;;
13461;SDS011;6803;45.264;5.468;2023-02-28T16:02:30;16.63;;;8.87;;
13461;SDS011;6803;45.264;5.468;2023-02-28T16:07:58;10.93;;;9.00;;
13461;SDS011;6803;45.264;5.468;2023-02-28T16:10:30;10.50;;;8.77;;
13461;SDS011;6803;45.264;5.468;2023-02-28T16:13:01;10.87;;;8.73;;
13461;SDS011;6803;45.264;5.468;2023-02-28T16:15:34;13.60;;;8.80;;
13461;SDS011;6803;45.264;5.468;2023-02-28T16:18:09;10.73;;;9.13;;
13461;SDS011;6803;45.264;5.468;2023-02-28T16:20:41;13.90;;;8.87;;
13461;SDS011;6803;45.264;5.468;2023-02-28T16:23:13;12.30;;;8.40;;
13461;SDS011;6803;45.264;5.468;2023-02-28T16:25:44;11.40;;;8.70;;
13461;SDS011;6803;45.264;5.468;2023-02-28T16:28:17;10.77;;;8.53;;
13461;SDS011;6803;45.264;5.468;2023-02-28T16:30:51;11.07;;;8.90;;
13461;SDS011;6803;45.264;5.468;2023-02-28T16:33:23;11.83;;;9.17;;